createdAt,value
2017-07-17T00:00:22.123Z,58.29
2017-07-17T00:01:22.162Z,57.8
2017-07-17T00:02:22.119Z,57.8
2017-07-17T00:03:22.214Z,57.51
2017-07-17T00:04:21.927Z,57.61
2017-07-17T00:05:21.963Z,57.9
2017-07-17T00:06:22.305Z,57.7
2017-07-17T00:07:22.585Z,57.9
2017-07-17T00:08:22.358Z,57.51
2017-07-17T00:09:22.387Z,57.51
2017-07-17T00:10:22.422Z,57.42
2017-07-17T00:11:22.445Z,57.7
2017-07-17T00:12:22.781Z,57.32
2017-07-17T00:13:22.511Z,57.42
2017-07-17T00:14:22.215Z,57.51
2017-07-17T00:15:22.564Z,57.22
2017-07-17T00:16:22.583Z,57.51
2017-07-17T00:17:22.552Z,57.51
2017-07-17T00:18:22.373Z,57.42
2017-07-17T00:19:22.680Z,57.51
2017-07-17T00:20:22.708Z,57.42
2017-07-17T00:21:22.736Z,57.32
2017-07-17T00:22:23.012Z,57.42
2017-07-17T00:23:22.790Z,57.51
2017-07-17T00:24:22.823Z,57.32
2017-07-17T00:25:22.527Z,57.32
2017-07-17T00:26:22.883Z,57.51
2017-07-17T00:27:23.165Z,57.22
2017-07-17T00:28:22.618Z,57.22
2017-07-17T00:29:22.979Z,57.22
2017-07-17T00:30:22.993Z,57.32
2017-07-17T00:31:23.022Z,57.32
2017-07-17T00:32:23.358Z,57.42
2017-07-17T00:33:23.086Z,57.22
2017-07-17T00:34:23.107Z,57.42
2017-07-17T00:35:22.824Z,57.42
2017-07-17T00:36:23.182Z,57.22
2017-07-17T00:37:23.198Z,57.03
2017-07-17T00:38:22.910Z,57.7
2017-07-17T00:39:23.259Z,57.22
2017-07-17T00:40:23.289Z,57.32
2017-07-17T00:41:22.993Z,57.61
2017-07-17T00:42:23.347Z,57.51
2017-07-17T00:43:23.380Z,57.61
2017-07-17T00:44:23.084Z,57.61
2017-07-17T00:45:23.423Z,57.51
2017-07-17T00:46:23.458Z,57.03
2017-07-17T00:47:23.170Z,57.12
2017-07-17T00:48:23.198Z,57.32
2017-07-17T00:49:23.232Z,57.51
2017-07-17T00:50:23.573Z,57.03
2017-07-17T00:51:23.606Z,57.22
2017-07-17T00:52:23.642Z,57.32
2017-07-17T00:53:23.664Z,57.32
2017-07-17T00:54:23.371Z,57.42
2017-07-17T00:55:23.720Z,57.32
2017-07-17T00:56:23.429Z,57.32
2017-07-17T00:57:23.455Z,57.29
2017-07-17T00:58:23.808Z,57.12
2017-07-17T00:59:23.840Z,57.32
2017-07-17T01:00:23.864Z,56.54
2017-07-17T01:01:23.898Z,57.22
2017-07-17T01:02:23.923Z,57.09
2017-07-17T01:03:23.944Z,57.32
2017-07-17T01:04:23.976Z,57.42
2017-07-17T01:05:24.010Z,57.09
2017-07-17T01:06:24.042Z,57.12
2017-07-17T01:07:23.750Z,57.42
2017-07-17T01:08:24.095Z,57.39
2017-07-17T01:09:23.799Z,57.29
2017-07-17T01:10:24.153Z,57.19
2017-07-17T01:11:24.185Z,57.19
2017-07-17T01:12:23.890Z,57.29
2017-07-17T01:13:24.239Z,57.29
2017-07-17T01:14:24.272Z,57.29
2017-07-17T01:15:24.297Z,57.12
2017-07-17T01:16:24.324Z,57.29
2017-07-17T01:17:24.043Z,57.19
2017-07-17T01:18:24.384Z,57.39
2017-07-17T01:19:24.092Z,57.09
2017-07-17T01:20:24.437Z,57.39
2017-07-17T01:21:24.483Z,57.22
2017-07-17T01:22:24.502Z,57.09
2017-07-17T01:23:24.463Z,57.22
2017-07-17T01:24:24.240Z,57.19
2017-07-17T01:25:24.269Z,57.19
2017-07-17T01:26:24.630Z,57.19
2017-07-17T01:27:24.648Z,57.19
2017-07-17T01:28:24.619Z,57.29
2017-07-17T01:29:24.384Z,57.19
2017-07-17T01:30:24.413Z,56.71
2017-07-17T01:31:24.762Z,56.61
2017-07-17T01:32:24.796Z,56.9
2017-07-17T01:33:24.804Z,56.9
2017-07-17T01:34:24.529Z,56.9
2017-07-17T01:35:24.558Z,56.61
2017-07-17T01:36:24.898Z,57.09
2017-07-17T01:37:24.931Z,57
2017-07-17T01:38:25.215Z,57
2017-07-17T01:39:24.668Z,56.71
2017-07-17T01:40:25.018Z,57.09
2017-07-17T01:41:25.046Z,56.81
2017-07-17T01:42:25.072Z,56.81
2017-07-17T01:43:25.355Z,56.9
2017-07-17T01:44:24.817Z,57
2017-07-17T01:45:24.845Z,57.19
2017-07-17T01:46:24.873Z,57.19
2017-07-17T01:47:24.900Z,56.61
2017-07-17T01:48:25.231Z,56.61
2017-07-17T01:49:24.960Z,57.19
2017-07-17T01:50:25.307Z,56.81
2017-07-17T01:51:25.014Z,56.81
2017-07-17T01:52:25.367Z,56.9
2017-07-17T01:53:25.643Z,56.71
2017-07-17T01:54:25.424Z,56.81
2017-07-17T01:55:25.132Z,56.61
2017-07-17T01:56:25.478Z,56.81
2017-07-17T01:57:25.506Z,56.51
2017-07-17T01:58:25.512Z,56.81
2017-07-17T01:59:25.247Z,56.81
2017-07-17T02:00:25.596Z,56.81
2017-07-17T02:01:25.617Z,57
2017-07-17T02:02:25.689Z,56.81
2017-07-17T02:03:25.614Z,57.29
2017-07-17T02:04:25.716Z,57
2017-07-17T02:05:25.423Z,56.71
2017-07-17T02:06:25.445Z,56.81
2017-07-17T02:07:25.479Z,57.19
2017-07-17T02:08:25.806Z,56.61
2017-07-17T02:09:25.527Z,56.81
2017-07-17T02:10:25.884Z,57
2017-07-17T02:11:25.593Z,56.81
2017-07-17T02:12:25.941Z,56.71
2017-07-17T02:13:26.210Z,56.81
2017-07-17T02:14:25.680Z,56.81
2017-07-17T02:15:25.704Z,56.61
2017-07-17T02:16:26.057Z,56.71
2017-07-17T02:17:26.078Z,57.09
2017-07-17T02:18:26.047Z,56.81
2017-07-17T02:19:26.142Z,56.61
2017-07-17T02:20:26.171Z,56.61
2017-07-17T02:21:26.197Z,56.61
2017-07-17T02:22:25.906Z,56.71
2017-07-17T02:23:26.183Z,56.9
2017-07-17T02:24:25.967Z,56.61
2017-07-17T02:25:26.308Z,56.61
2017-07-17T02:26:26.024Z,56.81
2017-07-17T02:27:26.366Z,56.71
2017-07-17T02:28:26.695Z,56.71
2017-07-17T02:29:26.108Z,56.71
2017-07-17T02:30:26.133Z,56.81
2017-07-17T02:31:26.165Z,56.61
2017-07-17T02:32:26.502Z,56.81
2017-07-17T02:33:26.782Z,56.61
2017-07-17T02:34:26.564Z,56.71
2017-07-17T02:35:26.601Z,56.71
2017-07-17T02:36:26.312Z,56.61
2017-07-17T02:37:26.654Z,56.61
2017-07-17T02:38:26.934Z,56.61
2017-07-17T02:39:26.705Z,56.61
2017-07-17T02:40:26.425Z,56.81
2017-07-17T02:41:26.773Z,56.61
2017-07-17T02:42:26.802Z,56.61
2017-07-17T02:43:27.127Z,56.61
2017-07-17T02:44:26.864Z,56.71
2017-07-17T02:45:26.888Z,56.61
2017-07-17T02:46:26.909Z,56.61
2017-07-17T02:47:26.625Z,56.61
2017-07-17T02:48:26.956Z,56.81
2017-07-17T02:49:26.999Z,56.81
2017-07-17T02:50:26.710Z,56.51
2017-07-17T02:51:26.738Z,57
2017-07-17T02:52:26.766Z,56.41
2017-07-17T02:53:27.047Z,56.41
2017-07-17T02:54:26.819Z,56.32
2017-07-17T02:55:26.853Z,56.51
2017-07-17T02:56:26.882Z,56.51
2017-07-17T02:57:27.230Z,56.9
2017-07-17T02:58:27.506Z,56.9
2017-07-17T02:59:27.284Z,56.81
2017-07-17T03:00:26.993Z,56.81
2017-07-17T03:01:27.028Z,56.81
2017-07-17T03:02:27.374Z,56.9
2017-07-17T03:03:27.695Z,56.81
2017-07-17T03:04:27.432Z,56.51
2017-07-17T03:05:27.137Z,56.51
2017-07-17T03:06:27.170Z,56.51
2017-07-17T03:07:27.514Z,56.51
2017-07-17T03:08:27.800Z,56.32
2017-07-17T03:09:27.256Z,56.32
2017-07-17T03:10:27.605Z,56.32
2017-07-17T03:11:27.310Z,56.13
2017-07-17T03:12:27.662Z,56.13
2017-07-17T03:13:27.947Z,56.13
2017-07-17T03:14:27.720Z,56.23
2017-07-17T03:15:27.749Z,56.13
2017-07-17T03:16:27.769Z,56.03
2017-07-17T03:17:27.801Z,56.03
2017-07-17T03:18:28.083Z,56.32
2017-07-17T03:19:27.851Z,56.03
2017-07-17T03:20:27.569Z,56.13
2017-07-17T03:21:27.913Z,56.13
2017-07-17T03:22:27.938Z,56.03
2017-07-17T03:23:27.954Z,56.13
2017-07-17T03:24:28.001Z,56.23
2017-07-17T03:25:27.709Z,56.13
2017-07-17T03:26:27.742Z,56.03
2017-07-17T03:27:28.088Z,56.13
2017-07-17T03:28:28.363Z,56.03
2017-07-17T03:29:28.144Z,56.23
2017-07-17T03:30:28.174Z,56.13
2017-07-17T03:31:28.203Z,56.03
2017-07-17T03:32:28.230Z,56.32
2017-07-17T03:33:28.508Z,56.13
2017-07-17T03:34:28.289Z,56.51
2017-07-17T03:35:28.317Z,56.13
2017-07-17T03:36:28.391Z,56.32
2017-07-17T03:37:28.424Z,56.03
2017-07-17T03:38:28.655Z,56.32
2017-07-17T03:39:28.114Z,56.13
2017-07-17T03:40:28.454Z,56.13
2017-07-17T03:41:28.487Z,56.13
2017-07-17T03:42:28.196Z,55.93
2017-07-17T03:43:28.477Z,56.13
2017-07-17T03:44:28.578Z,56.23
2017-07-17T03:45:28.279Z,55.83
2017-07-17T03:46:28.313Z,56.03
2017-07-17T03:47:28.652Z,56.03
2017-07-17T03:48:28.988Z,56.03
2017-07-17T03:49:28.398Z,55.83
2017-07-17T03:50:28.427Z,56.03
2017-07-17T03:51:28.770Z,56.23
2017-07-17T03:52:28.804Z,56.32
2017-07-17T03:53:28.812Z,56.23
2017-07-17T03:54:28.862Z,56.13
2017-07-17T03:55:28.890Z,56.32
2017-07-17T03:56:28.915Z,56.13
2017-07-17T03:57:28.952Z,55.83
2017-07-17T03:58:29.225Z,56.23
2017-07-17T03:59:29.004Z,56.13
2017-07-17T04:00:28.711Z,56.13
2017-07-17T04:01:29.058Z,55.83
2017-07-17T04:02:29.088Z,56.23
2017-07-17T04:03:29.118Z,56.13
2017-07-17T04:04:29.143Z,56.1
2017-07-17T04:05:28.849Z,55.93
2017-07-17T04:06:29.204Z,56
2017-07-17T04:07:29.234Z,55.83
2017-07-17T04:08:29.262Z,55.9
2017-07-17T04:09:29.288Z,55.9
2017-07-17T04:10:29.316Z,56
2017-07-17T04:11:29.339Z,55.83
2017-07-17T04:12:29.056Z,56.03
2017-07-17T04:13:29.078Z,55.83
2017-07-17T04:14:29.114Z,56.49
2017-07-17T04:15:29.451Z,56
2017-07-17T04:16:29.172Z,56.29
2017-07-17T04:17:29.521Z,56.2
2017-07-17T04:18:29.546Z,56.03
2017-07-17T04:19:29.574Z,56.13
2017-07-17T04:20:29.604Z,56.1
2017-07-17T04:21:29.313Z,55.93
2017-07-17T04:22:29.661Z,56.13
2017-07-17T04:23:29.685Z,56.13
2017-07-17T04:24:29.398Z,56.51
2017-07-17T04:25:29.744Z,55.71
2017-07-17T04:26:29.773Z,55.81
2017-07-17T04:27:29.801Z,56.13
2017-07-17T04:28:29.508Z,56
2017-07-17T04:29:29.541Z,55.71
2017-07-17T04:30:29.566Z,56.1
2017-07-17T04:31:29.597Z,56.1
2017-07-17T04:32:29.627Z,56.1
2017-07-17T04:33:29.974Z,56.1
2017-07-17T04:34:29.999Z,55.9
2017-07-17T04:35:30.032Z,56.1
2017-07-17T04:36:29.736Z,55.9
2017-07-17T04:37:29.765Z,55.71
2017-07-17T04:38:30.111Z,56.1
2017-07-17T04:39:30.151Z,56.03
2017-07-17T04:40:29.852Z,55.81
2017-07-17T04:41:30.201Z,55.9
2017-07-17T04:42:29.909Z,55.9
2017-07-17T04:43:30.251Z,55.9
2017-07-17T04:44:30.324Z,55.9
2017-07-17T04:45:30.309Z,55.9
2017-07-17T04:46:30.024Z,55.9
2017-07-17T04:47:30.374Z,55.9
2017-07-17T04:48:30.083Z,56.2
2017-07-17T04:49:30.680Z,55.9
2017-07-17T04:50:30.453Z,56.29
2017-07-17T04:51:30.486Z,56
2017-07-17T04:52:30.511Z,55.93
2017-07-17T04:53:30.220Z,56
2017-07-17T04:54:30.866Z,56
2017-07-17T04:55:30.588Z,55.9
2017-07-17T04:56:30.310Z,56.03
2017-07-17T04:57:30.334Z,56.1
2017-07-17T04:58:30.683Z,56.03
2017-07-17T04:59:30.975Z,56.03
2017-07-17T05:00:30.423Z,56.1
2017-07-17T05:01:30.458Z,56.1
2017-07-17T05:02:30.479Z,56
2017-07-17T05:03:30.823Z,55.93
2017-07-17T05:04:31.104Z,56.29
2017-07-17T05:05:30.880Z,55.54
2017-07-17T05:06:30.913Z,55.83
2017-07-17T05:07:30.951Z,55.74
2017-07-17T05:08:30.967Z,55.74
2017-07-17T05:09:31.256Z,55.74
2017-07-17T05:10:31.029Z,55.64
2017-07-17T05:11:31.057Z,55.26
2017-07-17T05:12:30.766Z,55.74
2017-07-17T05:13:30.787Z,55.54
2017-07-17T05:14:30.819Z,55.93
2017-07-17T05:15:31.164Z,55.74
2017-07-17T05:16:31.198Z,55.54
2017-07-17T05:17:30.906Z,55.74
2017-07-17T05:18:31.251Z,55.74
2017-07-17T05:19:30.964Z,55.64
2017-07-17T05:20:30.994Z,55.74
2017-07-17T05:21:31.341Z,55.54
2017-07-17T05:22:31.361Z,55.54
2017-07-17T05:23:31.074Z,55.93
2017-07-17T05:24:31.096Z,55.83
2017-07-17T05:25:31.133Z,55.64
2017-07-17T05:26:31.478Z,55.64
2017-07-17T05:27:31.511Z,55.54
2017-07-17T05:28:31.536Z,55.74
2017-07-17T05:29:31.569Z,56.13
2017-07-17T05:30:31.649Z,56.13
2017-07-17T05:31:31.306Z,55.74
2017-07-17T05:32:31.758Z,55.83
2017-07-17T05:33:31.681Z,56.13
2017-07-17T05:34:31.714Z,56.51
2017-07-17T05:35:31.730Z,56.32
2017-07-17T05:36:31.797Z,55.93
2017-07-17T05:37:31.479Z,55.93
2017-07-17T05:38:31.504Z,56.03
2017-07-17T05:39:31.853Z,56.13
2017-07-17T05:40:31.618Z,56.23
2017-07-17T05:41:31.916Z,55.83
2017-07-17T05:42:31.939Z,56.13
2017-07-17T05:43:31.972Z,56.03
2017-07-17T05:44:32.002Z,56.13
2017-07-17T05:45:32.033Z,55.93
2017-07-17T05:46:32.050Z,56.51
2017-07-17T05:47:32.080Z,55.93
2017-07-17T05:48:32.116Z,55.93
2017-07-17T05:49:31.821Z,55.93
2017-07-17T05:50:31.852Z,55.93
2017-07-17T05:51:31.878Z,55.93
2017-07-17T05:52:31.908Z,55.83
2017-07-17T05:53:31.940Z,55.54
2017-07-17T05:54:31.965Z,55.54
2017-07-17T05:55:31.994Z,55.74
2017-07-17T05:56:32.018Z,55.64
2017-07-17T05:57:32.049Z,55.83
2017-07-17T05:58:32.087Z,55.83
2017-07-17T05:59:32.429Z,55.44
2017-07-17T06:00:32.136Z,55.44
2017-07-17T06:01:32.162Z,55.06
2017-07-17T06:02:32.192Z,55.44
2017-07-17T06:03:32.220Z,55.16
2017-07-17T06:04:32.250Z,55.44
2017-07-17T06:05:32.851Z,55.06
2017-07-17T06:06:32.307Z,55.54
2017-07-17T06:07:32.655Z,55.74
2017-07-17T06:08:32.361Z,55.54
2017-07-17T06:09:32.713Z,55.64
2017-07-17T06:10:32.994Z,55.16
2017-07-17T06:11:32.771Z,55.16
2017-07-17T06:12:32.799Z,55.35
2017-07-17T06:13:32.507Z,55.74
2017-07-17T06:14:32.857Z,55.26
2017-07-17T06:15:32.818Z,55.16
2017-07-17T06:16:32.919Z,55.44
2017-07-17T06:17:32.943Z,55.35
2017-07-17T06:18:32.648Z,55.35
2017-07-17T06:19:33.001Z,55.35
2017-07-17T06:20:32.961Z,55.35
2017-07-17T06:21:33.059Z,55.26
2017-07-17T06:22:32.759Z,55.35
2017-07-17T06:23:33.112Z,55.16
2017-07-17T06:24:32.824Z,55.28
2017-07-17T06:25:33.105Z,55.28
2017-07-17T06:26:33.195Z,55.35
2017-07-17T06:27:32.907Z,55.26
2017-07-17T06:28:33.261Z,55.26
2017-07-17T06:29:33.285Z,55.67
2017-07-17T06:30:33.559Z,55.18
2017-07-17T06:31:33.343Z,55.26
2017-07-17T06:32:33.372Z,55.28
2017-07-17T06:33:33.404Z,55.18
2017-07-17T06:34:33.425Z,55.16
2017-07-17T06:35:33.709Z,55.28
2017-07-17T06:36:33.163Z,55.18
2017-07-17T06:37:33.512Z,54.99
2017-07-17T06:38:33.545Z,55.08
2017-07-17T06:39:33.564Z,54.99
2017-07-17T06:40:33.534Z,55.08
2017-07-17T06:41:33.633Z,55.16
2017-07-17T06:42:33.658Z,54.8
2017-07-17T06:43:33.368Z,54.99
2017-07-17T06:44:33.393Z,55.08
2017-07-17T06:45:33.669Z,54.9
2017-07-17T06:46:33.451Z,54.9
2017-07-17T06:47:33.480Z,54.99
2017-07-17T06:48:33.832Z,55.08
2017-07-17T06:49:33.862Z,54.8
2017-07-17T06:50:34.142Z,54.6
2017-07-17T06:51:33.599Z,54.7
2017-07-17T06:52:33.947Z,54.7
2017-07-17T06:53:33.656Z,54.7
2017-07-17T06:54:34.002Z,54.5
2017-07-17T06:55:34.287Z,54.9
2017-07-17T06:56:34.062Z,54.5
2017-07-17T06:57:33.770Z,54.6
2017-07-17T06:58:34.120Z,54.9
2017-07-17T06:59:33.829Z,54.5
2017-07-17T07:00:33.862Z,55.18
2017-07-17T07:01:33.886Z,54.99
2017-07-17T07:02:33.912Z,55.28
2017-07-17T07:03:34.232Z,54.7
2017-07-17T07:04:34.255Z,54.5
2017-07-17T07:05:34.002Z,54.41
2017-07-17T07:06:34.031Z,54.5
2017-07-17T07:07:34.060Z,54.8
2017-07-17T07:08:34.085Z,54.7
2017-07-17T07:09:34.437Z,54.8
2017-07-17T07:10:34.147Z,54.6
2017-07-17T07:11:34.492Z,54.7
2017-07-17T07:12:34.205Z,54.9
2017-07-17T07:13:34.233Z,54.7
2017-07-17T07:14:34.582Z,54.7
2017-07-17T07:15:34.291Z,54.5
2017-07-17T07:16:34.639Z,54.8
2017-07-17T07:17:34.664Z,54.41
2017-07-17T07:18:34.693Z,54.21
2017-07-17T07:19:34.732Z,54.6
2017-07-17T07:20:34.753Z,54.21
2017-07-17T07:21:34.464Z,54.5
2017-07-17T07:22:34.484Z,54.5
2017-07-17T07:23:34.840Z,54.21
2017-07-17T07:24:34.542Z,54.14
2017-07-17T07:25:34.579Z,54.63
2017-07-17T07:26:34.932Z,54.6
2017-07-17T07:27:34.961Z,54.24
2017-07-17T07:28:34.988Z,54.11
2017-07-17T07:29:35.018Z,54.53
2017-07-17T07:30:35.047Z,54.24
2017-07-17T07:31:35.068Z,54.5
2017-07-17T07:32:35.105Z,54.6
2017-07-17T07:33:35.133Z,54.63
2017-07-17T07:34:35.154Z,54.72
2017-07-17T07:35:35.182Z,54.9
2017-07-17T07:36:35.211Z,54.63
2017-07-17T07:37:35.244Z,54.63
2017-07-17T07:38:35.273Z,54.11
2017-07-17T07:39:34.986Z,54.63
2017-07-17T07:40:35.327Z,54.34
2017-07-17T07:41:35.039Z,54.63
2017-07-17T07:42:35.077Z,54.53
2017-07-17T07:43:35.101Z,54.63
2017-07-17T07:44:35.446Z,54.72
2017-07-17T07:45:35.167Z,54.53
2017-07-17T07:46:35.503Z,54.63
2017-07-17T07:47:35.537Z,54.53
2017-07-17T07:48:35.252Z,54.44
2017-07-17T07:49:35.278Z,54.24
2017-07-17T07:50:35.618Z,54.53
2017-07-17T07:51:35.651Z,54.53
2017-07-17T07:52:35.365Z,54.82
2017-07-17T07:53:35.388Z,54.53
2017-07-17T07:54:35.736Z,54.53
2017-07-17T07:55:35.779Z,54.82
2017-07-17T07:56:35.728Z,54.24
2017-07-17T07:57:35.824Z,54.53
2017-07-17T07:58:35.854Z,54.44
2017-07-17T07:59:35.886Z,54.53
2017-07-17T08:00:35.598Z,54.63
2017-07-17T08:01:36.251Z,54.14
2017-07-17T08:02:35.976Z,54.63
2017-07-17T08:03:36.004Z,54.72
2017-07-17T08:04:36.034Z,54.24
2017-07-17T08:05:36.062Z,54.24
2017-07-17T08:06:36.339Z,54.63
2017-07-17T08:07:36.124Z,54.66
2017-07-17T08:08:36.148Z,54.63
2017-07-17T08:09:35.857Z,54.53
2017-07-17T08:10:35.886Z,54.27
2017-07-17T08:11:36.488Z,54.44
2017-07-17T08:12:36.257Z,54.34
2017-07-17T08:13:36.289Z,54.34
2017-07-17T08:14:36.326Z,54.34
2017-07-17T08:15:36.354Z,54.14
2017-07-17T08:16:36.637Z,54.24
2017-07-17T08:17:36.412Z,54.17
2017-07-17T08:18:36.452Z,54.34
2017-07-17T08:19:36.461Z,54.34
2017-07-17T08:20:36.178Z,54.24
2017-07-17T08:21:36.456Z,54.36
2017-07-17T08:22:36.555Z,54.44
2017-07-17T08:23:36.264Z,54.53
2017-07-17T08:24:36.617Z,54.24
2017-07-17T08:25:36.325Z,54.36
2017-07-17T08:26:36.606Z,54.27
2017-07-17T08:27:36.696Z,54.72
2017-07-17T08:28:36.732Z,54.27
2017-07-17T08:29:36.441Z,54.17
2017-07-17T08:30:36.797Z,54.72
2017-07-17T08:31:36.751Z,54.24
2017-07-17T08:32:36.527Z,54.66
2017-07-17T08:33:36.557Z,54.56
2017-07-17T08:34:36.906Z,54.27
2017-07-17T08:35:36.938Z,54.17
2017-07-17T08:36:36.899Z,54.36
2017-07-17T08:37:36.672Z,54.07
2017-07-17T08:38:36.705Z,54.56
2017-07-17T08:39:36.739Z,54.46
2017-07-17T08:40:37.078Z,54.17
2017-07-17T08:41:37.411Z,54.66
2017-07-17T08:42:36.820Z,54.56
2017-07-17T08:43:37.165Z,54.66
2017-07-17T08:44:37.203Z,54.27
2017-07-17T08:45:37.219Z,54.27
2017-07-17T08:46:37.191Z,54.46
2017-07-17T08:47:37.292Z,54.56
2017-07-17T08:48:36.996Z,54.27
2017-07-17T08:49:37.346Z,54.36
2017-07-17T08:50:37.366Z,54.46
2017-07-17T08:51:37.666Z,54.46
2017-07-17T08:52:37.433Z,54.85
2017-07-17T08:53:37.461Z,54.56
2017-07-17T08:54:37.177Z,54.66
2017-07-17T08:55:37.514Z,54.56
2017-07-17T08:56:37.796Z,55.53
2017-07-17T08:57:37.576Z,55.33
2017-07-17T08:58:37.608Z,55.04
2017-07-17T08:59:37.637Z,55.14
2017-07-17T09:00:37.347Z,55.33
2017-07-17T09:01:37.958Z,55.24
2017-07-17T09:02:37.731Z,54.66
2017-07-17T09:03:37.749Z,54.88
2017-07-17T09:04:37.470Z,54.68
2017-07-17T09:05:37.815Z,55.24
2017-07-17T09:06:38.096Z,54.66
2017-07-17T09:07:37.552Z,55.14
2017-07-17T09:08:37.580Z,55.04
2017-07-17T09:09:37.925Z,54.58
2017-07-17T09:10:37.951Z,55.07
2017-07-17T09:11:37.919Z,55.07
2017-07-17T09:12:38.014Z,55.33
2017-07-17T09:13:38.045Z,54.68
2017-07-17T09:14:37.754Z,54.97
2017-07-17T09:15:38.106Z,55.07
2017-07-17T09:16:38.071Z,55.46
2017-07-17T09:17:38.159Z,54.88
2017-07-17T09:18:38.189Z,54.68
2017-07-17T09:19:38.226Z,54.88
2017-07-17T09:20:37.935Z,54.97
2017-07-17T09:21:38.578Z,54.85
2017-07-17T09:22:37.990Z,55.17
2017-07-17T09:23:38.021Z,54.68
2017-07-17T09:24:38.054Z,54.58
2017-07-17T09:25:38.083Z,54.97
2017-07-17T09:26:38.731Z,55.17
2017-07-17T09:27:38.140Z,54.49
2017-07-17T09:28:38.493Z,54.58
2017-07-17T09:29:38.198Z,54.68
2017-07-17T09:30:38.550Z,54.88
2017-07-17T09:31:38.831Z,54.88
2017-07-17T09:32:38.599Z,54.68
2017-07-17T09:33:38.633Z,54.58
2017-07-17T09:34:38.669Z,54.58
2017-07-17T09:35:38.379Z,54.78
2017-07-17T09:36:38.972Z,54.97
2017-07-17T09:37:38.436Z,54.39
2017-07-17T09:38:38.785Z,54.78
2017-07-17T09:39:38.818Z,54.88
2017-07-17T09:40:38.522Z,54.39
2017-07-17T09:41:39.115Z,54
2017-07-17T09:42:38.900Z,54.2
2017-07-17T09:43:38.612Z,54.49
2017-07-17T09:44:38.962Z,54.2
2017-07-17T09:45:38.666Z,54.68
2017-07-17T09:46:39.275Z,54.58
2017-07-17T09:47:38.735Z,54.03
2017-07-17T09:48:39.080Z,54
2017-07-17T09:49:38.789Z,54.39
2017-07-17T09:50:39.130Z,54.1
2017-07-17T09:51:39.199Z,54.1
2017-07-17T09:52:38.881Z,54.13
2017-07-17T09:53:39.227Z,53.74
2017-07-17T09:54:39.251Z,54.03
2017-07-17T09:55:38.958Z,54.42
2017-07-17T09:56:39.307Z,54.29
2017-07-17T09:57:39.029Z,54.42
2017-07-17T09:58:39.057Z,54.39
2017-07-17T09:59:39.402Z,54.2
2017-07-17T10:00:39.431Z,54.2
2017-07-17T10:01:39.144Z,54.49
2017-07-17T10:02:39.173Z,54.42
2017-07-17T10:03:39.206Z,55.17
2017-07-17T10:04:39.546Z,54.61
2017-07-17T10:05:39.265Z,53.93
2017-07-17T10:06:39.291Z,53.71
2017-07-17T10:07:39.642Z,54.13
2017-07-17T10:08:39.672Z,53.61
2017-07-17T10:09:39.705Z,53.35
2017-07-17T10:10:39.410Z,53.64
2017-07-17T10:11:39.759Z,53.35
2017-07-17T10:12:39.788Z,53.45
2017-07-17T10:13:39.501Z,54.03
2017-07-17T10:14:39.854Z,54.03
2017-07-17T10:15:39.878Z,53.93
2017-07-17T10:16:39.907Z,53.93
2017-07-17T10:17:39.935Z,53.93
2017-07-17T10:18:39.969Z,54.13
2017-07-17T10:19:39.986Z,54.03
2017-07-17T10:20:40.034Z,53.45
2017-07-17T10:21:39.733Z,53.16
2017-07-17T10:22:39.768Z,53.83
2017-07-17T10:23:39.788Z,53.93
2017-07-17T10:24:40.146Z,53.93
2017-07-17T10:25:40.174Z,53.83
2017-07-17T10:26:40.204Z,53.83
2017-07-17T10:27:40.228Z,53.93
2017-07-17T10:28:40.261Z,53.83
2017-07-17T10:29:40.290Z,53.45
2017-07-17T10:30:40.320Z,53.64
2017-07-17T10:31:40.353Z,52.86
2017-07-17T10:32:40.381Z,53.45
2017-07-17T10:33:40.413Z,52.47
2017-07-17T10:34:40.122Z,52.67
2017-07-17T10:35:40.151Z,52.57
2017-07-17T10:36:40.184Z,52.57
2017-07-17T10:37:40.213Z,52.86
2017-07-17T10:38:40.561Z,52.09
2017-07-17T10:39:40.267Z,52.19
2017-07-17T10:40:40.305Z,52.19
2017-07-17T10:41:40.652Z,52.01
2017-07-17T10:42:40.685Z,52.21
2017-07-17T10:43:40.701Z,52.11
2017-07-17T10:44:40.741Z,52.09
2017-07-17T10:45:40.754Z,52.28
2017-07-17T10:46:40.480Z,52.19
2017-07-17T10:47:40.828Z,51.89
2017-07-17T10:48:40.862Z,51.6
2017-07-17T10:49:40.569Z,52.01
2017-07-17T10:50:40.919Z,52.21
2017-07-17T10:51:40.949Z,52.09
2017-07-17T10:52:40.980Z,52.09
2017-07-17T10:53:40.689Z,51.7
2017-07-17T10:54:41.033Z,52.09
2017-07-17T10:55:40.747Z,52.19
2017-07-17T10:56:40.776Z,51.99
2017-07-17T10:57:41.429Z,51.92
2017-07-17T10:58:40.836Z,50.65
2017-07-17T10:59:40.861Z,50.82
2017-07-17T11:00:41.225Z,51.6
2017-07-17T11:01:40.927Z,51.99
2017-07-17T11:02:41.576Z,51.7
2017-07-17T11:03:41.304Z,51.92
2017-07-17T11:04:41.053Z,52.4
2017-07-17T11:05:41.372Z,51.99
2017-07-17T11:06:41.402Z,51.6
2017-07-17T11:07:41.729Z,50.95
2017-07-17T11:08:41.142Z,50.95
2017-07-17T11:09:41.488Z,51.04
2017-07-17T11:10:41.199Z,50.56
2017-07-17T11:11:41.544Z,50.75
2017-07-17T11:12:41.823Z,50.65
2017-07-17T11:13:41.606Z,50.75
2017-07-17T11:14:41.644Z,50.46
2017-07-17T11:15:41.663Z,50.36
2017-07-17T11:16:41.376Z,50.65
2017-07-17T11:17:41.981Z,50.75
2017-07-17T11:18:41.754Z,50.16
2017-07-17T11:19:41.778Z,50.56
2017-07-17T11:20:41.831Z,50.36
2017-07-17T11:21:41.529Z,50.75
2017-07-17T11:22:42.176Z,50.46
2017-07-17T11:23:41.587Z,50.75
2017-07-17T11:24:41.614Z,50.65
2017-07-17T11:25:41.963Z,51.14
2017-07-17T11:26:41.674Z,50.36
2017-07-17T11:27:41.956Z,50.26
2017-07-17T11:28:41.738Z,50.46
2017-07-17T11:29:42.087Z,50.36
2017-07-17T11:30:42.107Z,50.26
2017-07-17T11:31:41.824Z,50.65
2017-07-17T11:32:42.116Z,50.58
2017-07-17T11:33:42.202Z,50.58
2017-07-17T11:34:42.235Z,50.68
2017-07-17T11:35:42.255Z,50.48
2017-07-17T11:36:42.298Z,49.99
2017-07-17T11:37:42.258Z,50.58
2017-07-17T11:38:42.392Z,50.58
2017-07-17T11:39:42.375Z,50.38
2017-07-17T11:40:42.416Z,49.99
2017-07-17T11:41:42.120Z,49.9
2017-07-17T11:42:42.729Z,49.61
2017-07-17T11:43:42.511Z,49.34
2017-07-17T11:44:42.539Z,49.83
2017-07-17T11:45:42.581Z,48.95
2017-07-17T11:56:10.502Z,47.53
2017-07-17T11:57:10.523Z,47.25
2017-07-17T11:59:10.590Z,47.53
2017-07-17T12:00:10.299Z,47.53
2017-07-17T12:01:10.651Z,47.92
2017-07-17T12:02:10.681Z,47.73
2017-07-17T12:03:10.965Z,47.15
2017-07-17T12:04:10.743Z,47.53
2017-07-17T12:06:10.806Z,47.44
2017-07-17T12:07:10.832Z,47.42
2017-07-17T12:08:11.122Z,47.61
2017-07-17T12:09:10.913Z,47.61
2017-07-17T12:10:10.927Z,47.71
2017-07-17T12:11:10.959Z,47.71
2017-07-17T12:12:11.000Z,47.9
2017-07-17T12:13:11.273Z,47.9
2017-07-17T12:14:10.730Z,47.71
2017-07-17T12:15:11.082Z,47.8
2017-07-17T12:16:11.109Z,47.8
2017-07-17T12:17:11.141Z,47.71
2017-07-17T12:18:11.477Z,47.71
2017-07-17T12:19:11.202Z,46.95
2017-07-17T12:20:10.915Z,46.86
2017-07-17T12:21:11.271Z,46.56
2017-07-17T12:22:11.317Z,46
2017-07-17T12:23:11.569Z,45.81
2017-07-17T12:24:11.045Z,45.25
2017-07-17T12:25:11.074Z,44.78
2017-07-17T12:26:11.424Z,44.78
2017-07-17T12:27:11.455Z,43.63
2017-07-17T12:28:11.787Z,43.73
2017-07-17T12:29:11.510Z,43.04
2017-07-17T12:30:11.552Z,42.97
2017-07-17T12:31:11.590Z,41.99
2017-07-17T12:32:11.618Z,41.42
2017-07-17T12:33:11.947Z,41.15
2017-07-17T12:34:11.686Z,41.05
2017-07-17T12:35:11.715Z,40.66
2017-07-17T12:36:11.744Z,40.48
2017-07-17T12:37:11.773Z,39.9
2017-07-17T12:38:12.068Z,39.72
2017-07-17T12:39:11.854Z,39.14
2017-07-17T12:40:11.561Z,39.35
2017-07-17T12:41:11.904Z,39.45
2017-07-17T12:42:11.629Z,39.23
2017-07-17T12:43:11.961Z,38.96
2017-07-17T12:44:11.691Z,39.53
2017-07-17T12:45:11.731Z,39.04
2017-07-17T12:46:12.083Z,39.14
2017-07-17T12:47:11.793Z,39.14
2017-07-17T12:48:12.126Z,40.01
2017-07-17T12:49:11.859Z,39.22
2017-07-17T12:50:12.212Z,39.43
2017-07-17T12:51:12.240Z,39.22
2017-07-17T12:52:12.298Z,38.92
2017-07-17T12:53:12.562Z,39.31
2017-07-17T12:54:12.347Z,39.14
2017-07-17T12:55:12.380Z,39.02
2017-07-17T12:56:12.417Z,39.43
2017-07-17T12:57:12.125Z,39.33
2017-07-17T12:58:12.730Z,39.12
2017-07-17T12:59:12.509Z,39.23
2017-07-17T13:00:12.223Z,38.94
2017-07-17T13:01:12.578Z,38.94
2017-07-17T13:02:12.611Z,38.55
2017-07-17T13:03:12.890Z,38.94
2017-07-17T13:04:12.358Z,38.45
2017-07-17T13:05:12.704Z,38.84
2017-07-17T13:06:12.750Z,39.14
2017-07-17T13:07:12.772Z,39.53
2017-07-17T13:08:13.106Z,39.43
2017-07-17T13:09:12.835Z,39.14